パース の空港の天気 - METARとTAF

パース空港 ( YPPH / PER ) - オーストラリア 西オーストラリア州パース
飛行場実況気象(Metar)
観測時間04/21 23:00 AWST (04/21 15:00 UTC)
風向・風速北北東 2m/s
視程10km以上
天気現象
なし
気温9℃
湿度87%
気圧1024hPa
METARYPPH 211500Z 02003KT CAVOK 09/07 Q1024 NOSIG
過去の天気等 Google飛行場航空写真 Wunderground天気予報

過去48時間のMETAR

飛行場予報(TAF)
発表時間: 4/21 18:53 AWST (4/21 10:53 UTC)
予報対象時間: 21日20時 AWST ~ 23日2時 AWST
風向・風速南南西 4m/s
視程10km以上
なし
22日0時 AWST から
風向・風速東北東 3m/s
視程10km以上
なし
22日12時 AWST から
風向・風速北 4m/s
視程10km以上
なし
22日16時 AWST から
風向・風速南西 5m/s
視程10km以上
なし
22日21時 AWST から
風向・風速南南東 3m/s
視程10km以上
なし
TAF YPPH 211053Z 2112/2218 20008KT CAVOK
FM211600 06006KT CAVOK
FM220400 35007KT CAVOK
FM220800 23010KT CAVOK
FM221300 15006KT CAVOK